createdAt,value
2023-05-04T00:00:22.548Z,8.23
2023-05-04T00:03:11.502Z,8.18
2023-05-04T00:06:00.267Z,8.04
2023-05-04T00:08:50.342Z,8.06
2023-05-04T00:11:39.133Z,7.89
2023-05-04T00:14:28.277Z,7.82
2023-05-04T00:17:16.995Z,7.79
2023-05-04T00:20:07.470Z,7.67
2023-05-04T00:22:56.421Z,7.56
2023-05-04T00:25:46.581Z,7.57
2023-05-04T00:28:35.278Z,7.64
2023-05-04T00:31:24.000Z,7.68
2023-05-04T00:34:13.086Z,7.59
2023-05-04T00:37:02.027Z,7.69
2023-05-04T00:39:51.013Z,7.48
2023-05-04T00:42:41.416Z,7.47
2023-05-04T00:45:30.274Z,7.47
2023-05-04T00:48:19.308Z,7.44
2023-05-04T00:51:09.259Z,7.44
2023-05-04T00:53:59.218Z,7.37
2023-05-04T00:56:48.916Z,7.31
2023-05-04T00:59:39.386Z,7.25
2023-05-04T01:02:28.128Z,7.16
2023-05-04T01:05:17.311Z,7.12
2023-05-04T01:08:15.290Z,7.11
2023-05-04T01:11:12.440Z,7.03
2023-05-04T01:14:03.004Z,6.96
2023-05-04T01:16:57.680Z,6.85
2023-05-04T01:19:46.459Z,6.98
2023-05-04T01:22:37.538Z,6.94
2023-05-04T01:25:33.532Z,6.96
2023-05-04T01:28:33.150Z,6.94
2023-05-04T01:31:27.490Z,6.93
2023-05-04T01:34:18.220Z,6.96
2023-05-04T01:37:09.929Z,7.02
2023-05-04T01:40:00.040Z,7.05
2023-05-04T01:42:48.826Z,7.13
2023-05-04T01:45:37.606Z,7.19
2023-05-04T01:48:28.418Z,7.17
2023-05-04T01:51:17.268Z,7.23
2023-05-04T01:54:06.225Z,7.09
2023-05-04T01:56:56.269Z,7.13
2023-05-04T01:59:45.073Z,7.01
2023-05-04T02:02:33.874Z,6.94
2023-05-04T02:05:23.610Z,6.71
2023-05-04T02:08:12.303Z,6.74
2023-05-04T02:11:01.017Z,6.65
2023-05-04T02:13:51.153Z,6.56
2023-05-04T02:16:40.172Z,6.35
2023-05-04T02:19:29.145Z,6.30
2023-05-04T02:22:17.871Z,6.38
2023-05-04T02:25:08.396Z,6.27
2023-05-04T02:27:58.913Z,6.27
2023-05-04T02:30:48.981Z,6.32
2023-05-04T02:33:37.842Z,6.28
2023-05-04T02:36:26.510Z,6.22
2023-05-04T02:39:15.313Z,6.13
2023-05-04T02:42:04.102Z,5.92
2023-05-04T02:44:52.858Z,5.93
2023-05-04T02:47:42.924Z,6.05
2023-05-04T02:50:32.348Z,6.13
2023-05-04T02:53:21.147Z,6.19
2023-05-04T02:56:09.890Z,6.22
2023-05-04T02:58:58.730Z,6.17
2023-05-04T03:01:47.515Z,6.14
2023-05-04T03:04:37.782Z,6.19
2023-05-04T03:07:27.446Z,6.17
2023-05-04T03:10:16.311Z,6.40
2023-05-04T03:13:06.891Z,6.26
2023-05-04T03:15:56.528Z,6.21
2023-05-04T03:21:53.094Z,5.99
2023-05-04T03:24:41.801Z,6.05
2023-05-04T03:27:30.614Z,5.98
2023-05-04T03:30:19.837Z,5.86
2023-05-04T03:33:09.560Z,5.89
2023-05-04T03:35:58.345Z,5.82
2023-05-04T03:38:48.494Z,5.82
2023-05-04T03:41:37.295Z,5.89
2023-05-04T03:44:27.329Z,5.82
2023-05-04T03:47:16.177Z,5.98
2023-05-04T03:50:05.694Z,5.95
2023-05-04T03:52:54.971Z,5.95
2023-05-04T03:55:47.152Z,5.97
2023-05-04T03:58:36.272Z,5.95
2023-05-04T04:01:26.725Z,5.83
2023-05-04T04:04:15.538Z,6.03
2023-05-04T04:07:04.391Z,6.03
2023-05-04T04:09:53.494Z,6.09
2023-05-04T04:12:43.534Z,6.13
2023-05-04T04:15:32.308Z,6.04
2023-05-04T04:18:21.243Z,6.31
2023-05-04T04:21:10.659Z,6.38
2023-05-04T04:23:59.389Z,6.26
2023-05-04T04:26:48.190Z,6.45
2023-05-04T04:29:39.554Z,6.62
2023-05-04T04:32:29.123Z,6.53
2023-05-04T04:35:17.859Z,6.64
2023-05-04T04:38:06.985Z,6.67
2023-05-04T04:40:55.708Z,6.94
2023-05-04T04:43:44.492Z,7.03
2023-05-04T04:46:34.927Z,6.69
2023-05-04T04:49:23.690Z,6.82
2023-05-04T04:52:12.617Z,6.89
2023-05-04T04:55:01.515Z,7.10
2023-05-04T04:57:50.685Z,7.38
2023-05-04T05:00:39.586Z,7.40
2023-05-04T05:03:29.748Z,7.75
2023-05-04T05:06:18.669Z,7.76
2023-05-04T05:09:09.469Z,7.80
2023-05-04T05:11:58.280Z,8.13
2023-05-04T05:14:47.347Z,8.41
2023-05-04T05:17:37.662Z,8.47
2023-05-04T05:20:28.608Z,8.46
2023-05-04T05:23:17.900Z,8.75
2023-05-04T05:26:08.076Z,9.04
2023-05-04T05:28:56.929Z,9.21
2023-05-04T05:31:46.682Z,9.26
2023-05-04T05:34:38.940Z,9.31
2023-05-04T05:37:29.088Z,9.35
2023-05-04T05:40:19.142Z,9.56
2023-05-04T05:43:07.854Z,9.51
2023-05-04T05:45:56.806Z,9.78
2023-05-04T05:48:45.716Z,9.84
2023-05-04T05:51:34.861Z,9.96
2023-05-04T05:54:24.966Z,10.41
2023-05-04T05:57:13.778Z,10.60
2023-05-04T06:00:06.226Z,10.98
2023-05-04T06:03:00.980Z,11.08
2023-05-04T06:05:49.676Z,11.27
2023-05-04T06:08:41.547Z,11.29
2023-05-04T06:11:34.037Z,11.07
2023-05-04T06:14:24.222Z,11.40
2023-05-04T06:17:13.023Z,11.64
2023-05-04T06:20:01.760Z,11.65
2023-05-04T06:22:50.630Z,12.10
2023-05-04T06:25:39.399Z,12.43
2023-05-04T06:28:29.560Z,12.84
2023-05-04T06:31:18.437Z,12.73
2023-05-04T06:34:07.264Z,12.65
2023-05-04T06:36:56.627Z,12.61
2023-05-04T06:39:45.461Z,13.27
2023-05-04T06:42:34.139Z,13.33
2023-05-04T06:45:24.321Z,13.39
2023-05-04T06:48:13.018Z,13.83
2023-05-04T06:51:03.095Z,14.24
2023-05-04T06:53:52.225Z,14.41
2023-05-04T06:56:41.057Z,14.50
2023-05-04T06:59:29.770Z,14.63
2023-05-04T07:02:20.212Z,15.11
2023-05-04T07:05:09.785Z,15.40
2023-05-04T07:07:59.649Z,15.69
2023-05-04T07:10:48.595Z,16.20
2023-05-04T07:13:37.590Z,16.38
2023-05-04T07:16:29.193Z,16.14
2023-05-04T07:19:19.426Z,16.44
2023-05-04T07:22:08.132Z,16.52
2023-05-04T07:24:59.150Z,17.10
2023-05-04T07:27:48.731Z,17.65
2023-05-04T07:30:37.426Z,17.97
2023-05-04T07:33:26.713Z,17.90
2023-05-04T07:36:16.917Z,17.88
2023-05-04T07:39:05.725Z,18.04
2023-05-04T07:41:55.018Z,18.15
2023-05-04T07:44:43.778Z,18.42
2023-05-04T07:47:35.178Z,18.75
2023-05-04T07:50:25.928Z,19.12
2023-05-04T07:53:15.976Z,19.03
2023-05-04T07:56:11.208Z,19.08
2023-05-04T07:58:59.906Z,18.83
2023-05-04T08:01:48.727Z,18.89
2023-05-04T08:04:37.413Z,19.26
2023-05-04T08:07:26.317Z,19.38
2023-05-04T08:10:16.765Z,18.43
2023-05-04T08:13:05.870Z,19.34
2023-05-04T08:15:54.773Z,19.65
2023-05-04T08:18:43.529Z,19.07
2023-05-04T08:21:33.632Z,19.70
2023-05-04T08:24:22.954Z,19.51
2023-05-04T08:27:15.643Z,19.96
2023-05-04T08:30:05.170Z,19.25
2023-05-04T08:32:55.467Z,19.69
2023-05-04T08:35:44.272Z,20.48
2023-05-04T08:38:32.949Z,19.76
2023-05-04T08:41:22.088Z,19.46
2023-05-04T08:44:13.224Z,19.05
2023-05-04T08:47:04.738Z,18.59
2023-05-04T08:49:55.347Z,18.96
2023-05-04T08:52:53.733Z,19.63
2023-05-04T08:55:45.041Z,20.15
2023-05-04T08:58:38.162Z,20.50
2023-05-04T09:01:29.356Z,19.71
2023-05-04T09:04:19.517Z,19.77
2023-05-04T09:07:08.306Z,19.93
2023-05-04T09:09:57.140Z,19.40
2023-05-04T09:12:46.525Z,19.95
2023-05-04T09:15:35.250Z,20.11
2023-05-04T09:18:36.250Z,20.61
2023-05-04T09:21:30.624Z,20.16
2023-05-04T09:24:28.215Z,20.76
2023-05-04T09:27:21.361Z,21.11
2023-05-04T09:30:13.870Z,21.28
2023-05-04T09:33:03.121Z,21.87
2023-05-04T09:35:53.486Z,22.48
2023-05-04T09:38:42.294Z,22.65
2023-05-04T09:41:34.334Z,21.41
2023-05-04T09:44:26.911Z,20.72
2023-05-04T09:47:18.516Z,21.75
2023-05-04T09:50:19.890Z,22.67
2023-05-04T09:53:11.888Z,22.81
2023-05-04T09:56:13.571Z,23.46
2023-05-04T09:59:03.256Z,23.22
2023-05-04T10:01:52.329Z,23.40
2023-05-04T10:04:43.903Z,23.55
2023-05-04T10:07:34.223Z,23.97
2023-05-04T10:10:24.742Z,23.24
2023-05-04T10:13:13.579Z,22.46
2023-05-04T10:16:16.370Z,23.69
2023-05-04T10:19:53.853Z,24.58
2023-05-04T10:23:15.210Z,24.58
2023-05-04T10:26:42.510Z,24.44
2023-05-04T10:29:34.270Z,25.05
2023-05-04T10:32:23.992Z,25.76
2023-05-04T10:35:14.306Z,25.34
2023-05-04T10:38:04.394Z,24.81
2023-05-04T10:40:53.756Z,25.13
2023-05-04T10:43:48.620Z,24.46
2023-05-04T10:46:37.691Z,25.09
2023-05-04T10:49:26.655Z,24.72
2023-05-04T10:52:17.883Z,26.07
2023-05-04T10:55:08.976Z,26.94
2023-05-04T10:57:58.403Z,27.37
2023-05-04T11:00:51.583Z,27.16
2023-05-04T11:03:41.837Z,26.08
2023-05-04T11:06:30.826Z,26.97
2023-05-04T11:09:20.714Z,26.26
2023-05-04T11:12:11.428Z,25.24
2023-05-04T11:15:09.080Z,26.54
2023-05-04T11:17:59.251Z,26.83
2023-05-04T11:20:48.072Z,27.21
2023-05-04T11:23:37.936Z,27.86
2023-05-04T11:26:28.425Z,25.97
2023-05-04T11:29:17.343Z,26.35
2023-05-04T11:32:06.415Z,27.11
2023-05-04T11:34:58.268Z,27.49
2023-05-04T11:37:49.589Z,26.25
2023-05-04T11:40:41.250Z,27.14
2023-05-04T11:43:30.573Z,27.20
2023-05-04T11:46:19.987Z,27.59
2023-05-04T11:49:09.158Z,27.50
2023-05-04T11:52:08.461Z,28.25
2023-05-04T11:54:58.075Z,28.84
2023-05-04T11:57:46.855Z,28.49
2023-05-04T12:00:41.542Z,28.23
2023-05-04T12:03:51.141Z,27.08
2023-05-04T12:06:41.794Z,27.99
2023-05-04T12:09:32.026Z,28.34
2023-05-04T12:12:23.214Z,28.50
2023-05-04T12:15:12.219Z,27.84
2023-05-04T12:18:03.021Z,27.95
2023-05-04T12:20:52.578Z,26.16
2023-05-04T12:23:42.935Z,27.25
2023-05-04T12:26:33.357Z,28.37
2023-05-04T12:29:22.132Z,29.21
2023-05-04T12:32:13.901Z,29.76
2023-05-04T12:35:03.949Z,30.13
2023-05-04T12:37:52.665Z,28.81
2023-05-04T12:40:41.672Z,28.99
2023-05-04T12:43:32.970Z,28.37
2023-05-04T12:46:22.614Z,27.29
2023-05-04T12:49:12.053Z,28.57
2023-05-04T12:52:00.816Z,29.18
2023-05-04T12:54:49.804Z,27.27
2023-05-04T12:57:39.501Z,28.36
2023-05-04T13:00:31.243Z,29.15
2023-05-04T13:03:21.760Z,28.97
2023-05-04T13:06:11.796Z,27.60
2023-05-04T13:09:01.691Z,28.48
2023-05-04T13:11:52.827Z,28.45
2023-05-04T13:14:41.546Z,29.00
2023-05-04T13:17:33.800Z,28.13
2023-05-04T13:20:22.674Z,27.51
2023-05-04T13:23:11.405Z,26.29
2023-05-04T13:26:00.203Z,27.41
2023-05-04T13:28:49.634Z,28.32
2023-05-04T13:31:44.791Z,29.01
2023-05-04T13:34:35.217Z,28.91
2023-05-04T13:37:23.931Z,28.44
2023-05-04T13:40:14.462Z,29.04
2023-05-04T13:43:03.192Z,27.59
2023-05-04T13:45:52.360Z,26.66
2023-05-04T13:48:41.055Z,27.45
2023-05-04T13:51:32.105Z,27.11
2023-05-04T13:54:20.803Z,25.82
2023-05-04T13:57:09.507Z,26.05
2023-05-04T14:02:59.401Z,27.56
2023-05-04T14:05:48.491Z,25.46
2023-05-04T14:08:38.618Z,26.15
2023-05-04T14:11:27.586Z,27.25
2023-05-04T14:14:16.520Z,28.04
2023-05-04T14:17:07.931Z,27.92
2023-05-04T14:19:58.797Z,26.73
2023-05-04T14:22:48.165Z,26.47
2023-05-04T14:25:38.852Z,26.36
2023-05-04T14:28:27.568Z,26.65
2023-05-04T14:31:16.555Z,27.76
2023-05-04T14:34:05.255Z,28.24
2023-05-04T14:36:53.936Z,28.03
2023-05-04T14:39:42.617Z,28.33
2023-05-04T14:42:32.756Z,27.99
2023-05-04T14:45:22.562Z,26.75
2023-05-04T14:48:11.307Z,27.00
2023-05-04T14:50:59.980Z,26.33
2023-05-04T14:53:48.680Z,25.59
2023-05-04T14:56:37.431Z,24.72
2023-05-04T14:59:36.975Z,25.79
2023-05-04T15:02:35.732Z,26.13
2023-05-04T15:05:24.571Z,25.91
2023-05-04T15:08:13.256Z,25.12
2023-05-04T15:11:02.427Z,25.81
2023-05-04T15:13:59.895Z,25.99
2023-05-04T15:16:59.160Z,26.23
2023-05-04T15:20:02.907Z,25.37
2023-05-04T15:22:54.550Z,25.58
2023-05-04T15:25:53.196Z,25.54
2023-05-04T15:28:42.466Z,25.74
2023-05-04T15:31:31.210Z,25.78
2023-05-04T15:34:21.400Z,25.91
2023-05-04T15:37:10.350Z,25.84
2023-05-04T15:40:03.346Z,25.62
2023-05-04T15:42:52.493Z,25.39
2023-05-04T15:45:41.186Z,25.45
2023-05-04T15:48:30.001Z,25.23
2023-05-04T15:51:20.900Z,24.85
2023-05-04T15:54:09.710Z,24.50
2023-05-04T15:57:05.318Z,24.32
2023-05-04T15:59:59.288Z,24.05
2023-05-04T16:03:00.617Z,24.03
2023-05-04T16:05:57.941Z,23.45
2023-05-04T16:08:48.163Z,24.09
2023-05-04T16:11:37.485Z,24.19
2023-05-04T16:14:31.776Z,24.47
2023-05-04T16:17:20.528Z,24.20
2023-05-04T16:20:10.712Z,23.80
2023-05-04T16:22:59.474Z,23.48
2023-05-04T16:25:49.628Z,23.47
2023-05-04T16:28:40.311Z,23.81
2023-05-04T16:31:29.087Z,22.94
2023-05-04T16:34:18.066Z,23.43
2023-05-04T16:37:07.886Z,23.50
2023-05-04T16:39:59.570Z,23.22
2023-05-04T16:42:49.931Z,23.31
2023-05-04T16:45:39.565Z,23.40
2023-05-04T16:48:28.433Z,23.11
2023-05-04T16:51:17.179Z,22.87
2023-05-04T16:54:05.957Z,22.72
2023-05-04T16:56:57.930Z,22.25
2023-05-04T16:59:48.248Z,21.97
2023-05-04T17:02:37.317Z,21.48
2023-05-04T17:05:26.504Z,21.72
2023-05-04T17:08:17.102Z,21.71
2023-05-04T17:11:06.148Z,21.72
2023-05-04T17:13:56.132Z,21.76
2023-05-04T17:16:46.325Z,21.48
2023-05-04T17:19:35.881Z,21.42
2023-05-04T17:22:26.298Z,21.32
2023-05-04T17:25:16.851Z,21.26
2023-05-04T17:28:06.309Z,20.78
2023-05-04T17:30:55.766Z,20.72
2023-05-04T17:33:46.369Z,20.50
2023-05-04T17:36:35.219Z,20.54
2023-05-04T17:39:23.954Z,20.46
2023-05-04T17:42:13.425Z,20.36
2023-05-04T17:45:02.162Z,20.30
2023-05-04T17:47:52.223Z,20.10
2023-05-04T17:50:43.336Z,19.75
2023-05-04T17:53:32.151Z,19.59
2023-05-04T17:56:21.853Z,19.40
2023-05-04T17:59:10.741Z,19.13
2023-05-04T18:02:03.200Z,18.97
2023-05-04T18:04:52.068Z,18.73
2023-05-04T18:07:44.177Z,18.62
2023-05-04T18:10:35.912Z,18.45
2023-05-04T18:13:24.705Z,18.20
2023-05-04T18:16:13.589Z,17.92
2023-05-04T18:19:02.671Z,17.68
2023-05-04T18:21:53.480Z,17.49
2023-05-04T18:24:49.896Z,17.25
2023-05-04T18:27:38.662Z,17.03
2023-05-04T18:30:27.539Z,16.80
2023-05-04T18:33:16.511Z,16.67
2023-05-04T18:36:06.011Z,16.45
2023-05-04T18:38:56.006Z,16.29
2023-05-04T18:41:48.722Z,16.13
2023-05-04T18:44:40.680Z,15.95
2023-05-04T18:47:29.621Z,15.79
2023-05-04T18:50:21.378Z,15.62
2023-05-04T18:53:10.171Z,15.49
2023-05-04T18:56:04.155Z,15.36
2023-05-04T18:58:54.299Z,15.20
2023-05-04T19:01:43.292Z,15.14
2023-05-04T19:04:32.138Z,15.03
2023-05-04T19:07:21.010Z,14.96
2023-05-04T19:10:11.275Z,14.86
2023-05-04T19:13:01.245Z,14.75
2023-05-04T19:15:51.735Z,14.68
2023-05-04T19:18:43.099Z,14.60
2023-05-04T19:21:31.892Z,14.51
2023-05-04T19:24:21.088Z,14.42
2023-05-04T19:27:10.451Z,14.35
2023-05-04T19:29:59.381Z,14.32
2023-05-04T19:32:49.960Z,14.27
2023-05-04T19:35:41.996Z,14.18
2023-05-04T19:38:31.290Z,14.11
2023-05-04T19:41:22.209Z,14.04
2023-05-04T19:44:11.959Z,14.09
2023-05-04T19:47:01.069Z,14.02
2023-05-04T19:49:51.249Z,13.96
2023-05-04T19:52:41.243Z,13.88
2023-05-04T19:55:30.041Z,13.78
2023-05-04T19:58:18.903Z,13.66
2023-05-04T20:01:07.795Z,13.66
2023-05-04T20:03:56.661Z,13.50
2023-05-04T20:06:47.900Z,13.37
2023-05-04T20:09:36.828Z,13.22
2023-05-04T20:12:26.392Z,13.29
2023-05-04T20:15:16.028Z,13.36
2023-05-04T20:18:05.181Z,13.12
2023-05-04T20:20:54.030Z,13.01
2023-05-04T20:23:44.541Z,13.16
2023-05-04T20:26:39.317Z,13.26
2023-05-04T20:29:28.957Z,13.26
2023-05-04T20:32:17.727Z,13.16
2023-05-04T20:35:09.094Z,13.02
2023-05-04T20:37:59.175Z,12.95
2023-05-04T20:40:50.451Z,12.91
2023-05-04T20:43:40.792Z,12.98
2023-05-04T20:46:33.212Z,12.99
2023-05-04T20:49:22.064Z,12.91
2023-05-04T20:52:12.107Z,12.92
2023-05-04T20:55:01.401Z,12.90
2023-05-04T20:57:52.169Z,12.86
2023-05-04T21:00:41.146Z,12.66
2023-05-04T21:03:30.430Z,12.69
2023-05-04T21:06:19.216Z,12.59
2023-05-04T21:09:10.109Z,12.64
2023-05-04T21:11:59.403Z,12.76
2023-05-04T21:14:49.531Z,12.78
2023-05-04T21:17:38.241Z,12.71
2023-05-04T21:20:27.103Z,12.69
2023-05-04T21:23:16.187Z,12.60
2023-05-04T21:26:06.046Z,12.58
2023-05-04T21:28:54.788Z,12.33
2023-05-04T21:31:44.920Z,12.11
2023-05-04T21:34:33.641Z,11.93
2023-05-04T21:37:22.474Z,11.96
2023-05-04T21:40:12.000Z,11.58
2023-05-04T21:43:01.446Z,11.42
2023-05-04T21:45:50.511Z,11.24
2023-05-04T21:48:41.064Z,11.05
2023-05-04T21:51:29.907Z,11.06
2023-05-04T21:54:23.562Z,10.92
2023-05-04T21:57:12.263Z,11.14
2023-05-04T22:00:01.224Z,11.36
2023-05-04T22:02:50.550Z,11.36
2023-05-04T22:05:40.643Z,11.49
2023-05-04T22:08:30.514Z,11.51
2023-05-04T22:11:19.408Z,11.52
2023-05-04T22:14:08.259Z,11.50
2023-05-04T22:16:57.077Z,11.45
2023-05-04T22:19:45.966Z,11.32
2023-05-04T22:22:36.480Z,11.26
2023-05-04T22:25:25.706Z,11.37
2023-05-04T22:28:14.389Z,11.33
2023-05-04T22:31:03.199Z,11.12
2023-05-04T22:33:51.957Z,11.02
2023-05-04T22:36:40.839Z,10.98
2023-05-04T22:39:30.879Z,10.97
2023-05-04T22:42:19.546Z,10.88
2023-05-04T22:45:09.915Z,10.82
2023-05-04T22:47:58.728Z,10.54
2023-05-04T22:50:48.516Z,10.57
2023-05-04T22:53:37.228Z,10.47
2023-05-04T22:56:27.276Z,10.58
2023-05-04T22:59:15.975Z,10.71
2023-05-04T23:02:04.878Z,10.85
2023-05-04T23:04:54.089Z,10.91
2023-05-04T23:07:42.873Z,10.71
2023-05-04T23:10:31.923Z,10.80
2023-05-04T23:13:21.954Z,10.86
2023-05-04T23:16:10.787Z,10.80
2023-05-04T23:18:59.583Z,10.71
2023-05-04T23:21:48.300Z,10.72
2023-05-04T23:24:37.192Z,10.46
2023-05-04T23:27:25.896Z,10.46
2023-05-04T23:30:16.234Z,10.20
2023-05-04T23:33:05.456Z,10.12
2023-05-04T23:35:56.523Z,9.89
2023-05-04T23:38:45.251Z,9.89
2023-05-04T23:41:34.138Z,9.95
2023-05-04T23:44:22.844Z,9.89
2023-05-04T23:47:15.241Z,9.98
2023-05-04T23:50:04.142Z,9.92
2023-05-04T23:52:52.874Z,9.86
2023-05-04T23:55:41.487Z,9.72
2023-05-04T23:58:30.661Z,9.62
